createdAt,value
2024-02-15T00:01:37.166Z,2.03
2024-02-15T00:04:24.471Z,2.47
2024-02-15T00:07:12.116Z,1.80
2024-02-15T00:10:00.377Z,1.88
2024-02-15T00:12:49.623Z,2.30
2024-02-15T00:15:38.150Z,2.53
2024-02-15T00:18:26.799Z,2.17
2024-02-15T00:21:14.764Z,2.28
2024-02-15T00:24:03.122Z,2.55
2024-02-15T00:26:53.136Z,2.10
2024-02-15T00:29:41.924Z,2.08
2024-02-15T00:32:29.863Z,2.40
2024-02-15T00:35:17.736Z,2.22
2024-02-15T00:38:07.676Z,2.72
2024-02-15T00:40:55.045Z,2.25
2024-02-15T00:43:42.881Z,2.80
2024-02-15T00:46:30.628Z,2.30
2024-02-15T00:49:20.512Z,2.05
2024-02-15T00:52:08.040Z,2.10
2024-02-15T00:54:57.947Z,2.03
2024-02-15T00:57:45.404Z,2.58
2024-02-15T01:00:33.826Z,2.30
2024-02-15T01:03:22.105Z,2.20
2024-02-15T01:06:09.714Z,2.08
2024-02-15T01:08:58.619Z,2.28
2024-02-15T01:11:46.248Z,2.33
2024-02-15T01:14:33.965Z,2.30
2024-02-15T01:17:21.789Z,2.10
2024-02-15T01:20:11.914Z,1.80
2024-02-15T01:23:00.233Z,2.05
2024-02-15T01:25:48.083Z,2.45
2024-02-15T01:28:36.218Z,2.03
2024-02-15T01:31:25.105Z,2.08
2024-02-15T01:34:12.629Z,2.30
2024-02-15T01:36:59.952Z,1.83
2024-02-15T01:39:48.232Z,2.03
2024-02-15T01:42:35.743Z,2.15
2024-02-15T01:45:23.453Z,2.00
2024-02-15T01:48:12.577Z,2.33
2024-02-15T01:51:01.446Z,2.30
2024-02-15T01:53:48.913Z,2.25
2024-02-15T01:56:38.353Z,2.90
2024-02-15T01:59:27.142Z,2.72
2024-02-15T02:02:18.497Z,2.38
2024-02-15T02:05:06.932Z,2.50
2024-02-15T02:07:54.386Z,2.70
2024-02-15T02:10:42.321Z,2.72
2024-02-15T02:13:32.319Z,2.90
2024-02-15T02:16:33.988Z,2.65
2024-02-15T02:19:22.083Z,2.33
2024-02-15T02:22:10.662Z,2.60
2024-02-15T02:25:07.756Z,3.05
2024-02-15T02:27:56.473Z,2.75
2024-02-15T02:30:47.124Z,2.67
2024-02-15T02:33:37.005Z,2.35
2024-02-15T02:36:28.215Z,2.40
2024-02-15T02:39:15.846Z,2.40
2024-02-15T02:42:05.254Z,3.05
2024-02-15T02:44:53.072Z,2.50
2024-02-15T02:47:41.243Z,2.55
2024-02-15T02:50:29.276Z,2.95
2024-02-15T02:53:16.614Z,3.03
2024-02-15T02:56:05.123Z,2.90
2024-02-15T02:58:54.484Z,2.97
2024-02-15T03:01:42.436Z,2.70
2024-02-15T03:04:29.969Z,2.78
2024-02-15T03:07:20.057Z,2.80
2024-02-15T03:10:15.952Z,2.53
2024-02-15T03:13:06.172Z,2.70
2024-02-15T03:15:54.001Z,3.15
2024-02-15T03:18:43.087Z,3.15
2024-02-15T03:21:31.048Z,2.30
2024-02-15T03:24:18.437Z,2.78
2024-02-15T03:27:06.174Z,2.90
2024-02-15T03:29:54.001Z,2.88
2024-02-15T03:32:42.658Z,2.55
2024-02-15T03:35:32.866Z,3.20
2024-02-15T03:38:20.691Z,2.60
2024-02-15T03:41:08.602Z,3.03
2024-02-15T03:43:56.647Z,2.78
2024-02-15T03:46:45.177Z,2.55
2024-02-15T03:49:35.797Z,2.88
2024-02-15T03:52:23.517Z,2.67
2024-02-15T03:55:18.582Z,2.80
2024-02-15T03:58:10.230Z,2.90
2024-02-15T04:00:58.524Z,2.92
2024-02-15T04:03:46.058Z,3.25
2024-02-15T04:06:38.603Z,2.83
2024-02-15T04:09:26.804Z,2.58
2024-02-15T04:12:15.166Z,2.33
2024-02-15T04:15:08.216Z,2.80
2024-02-15T04:17:57.864Z,2.85
2024-02-15T04:20:49.825Z,2.92
2024-02-15T04:23:40.007Z,2.72
2024-02-15T04:26:28.211Z,3.17
2024-02-15T04:29:16.689Z,2.80
2024-02-15T04:32:05.046Z,2.70
2024-02-15T04:34:53.463Z,2.70
2024-02-15T04:37:42.078Z,2.60
2024-02-15T04:40:29.312Z,2.88
2024-02-15T04:43:17.799Z,2.83
2024-02-15T04:46:10.491Z,2.53
2024-02-15T04:51:52.102Z,3.00
2024-02-15T04:54:40.947Z,2.50
2024-02-15T04:57:30.333Z,2.88
2024-02-15T05:00:22.168Z,3.13
2024-02-15T05:03:09.853Z,3.35
2024-02-15T05:05:58.994Z,3.05
2024-02-15T05:08:46.581Z,4.13
2024-02-15T05:11:39.301Z,3.25
2024-02-15T05:17:18.657Z,3.33
2024-02-15T05:20:12.124Z,4.00
2024-02-15T05:23:00.381Z,4.07
2024-02-15T05:25:48.762Z,4.30
2024-02-15T05:28:36.467Z,3.97
2024-02-15T05:31:28.047Z,4.07
2024-02-15T05:34:16.800Z,3.97
2024-02-15T05:37:04.794Z,4.10
2024-02-15T05:39:55.197Z,4.22
2024-02-15T05:42:48.913Z,4.78
2024-02-15T05:45:37.617Z,4.80
2024-02-15T05:48:25.266Z,4.45
2024-02-15T05:51:13.187Z,4.30
2024-02-15T05:54:00.967Z,4.20
2024-02-15T05:57:05.525Z,4.88
2024-02-15T05:59:55.145Z,4.82
2024-02-15T06:02:45.006Z,4.78
2024-02-15T06:05:35.616Z,4.50
2024-02-15T06:08:24.297Z,5.18
2024-02-15T06:11:11.813Z,4.45
2024-02-15T06:14:00.249Z,5.20
2024-02-15T06:16:50.200Z,5.15
2024-02-15T06:19:38.594Z,6.10
2024-02-15T06:22:28.391Z,5.72
2024-02-15T06:25:21.493Z,5.75
2024-02-15T06:28:30.735Z,6.07
2024-02-15T06:31:40.944Z,5.97
2024-02-15T06:34:49.016Z,6.05
2024-02-15T06:37:59.116Z,6.05
2024-02-15T06:40:46.378Z,6.10
2024-02-15T06:43:34.895Z,6.40
2024-02-15T06:46:22.787Z,6.53
2024-02-15T06:49:11.925Z,5.68
2024-02-15T06:52:00.436Z,6.10
2024-02-15T06:54:48.204Z,6.10
2024-02-15T06:57:40.005Z,5.30
2024-02-15T07:00:27.652Z,6.15
2024-02-15T07:03:15.223Z,17.00
2024-02-15T07:06:04.500Z,6.85
2024-02-15T07:08:56.624Z,5.35
2024-02-15T07:11:46.284Z,5.43
2024-02-15T07:14:36.259Z,5.05
2024-02-15T07:17:23.722Z,4.68
2024-02-15T07:20:19.959Z,4.85
2024-02-15T07:23:07.504Z,4.22
2024-02-15T07:25:55.328Z,4.80
2024-02-15T07:28:43.044Z,4.15
2024-02-15T07:31:31.550Z,3.88
2024-02-15T07:34:19.100Z,4.15
2024-02-15T07:37:08.956Z,3.50
2024-02-15T07:40:03.122Z,3.85
2024-02-15T07:42:54.438Z,3.50
2024-02-15T07:45:42.430Z,3.80
2024-02-15T07:48:30.566Z,4.40
2024-02-15T07:51:22.238Z,3.92
2024-02-15T07:54:09.658Z,4.05
2024-02-15T07:56:58.662Z,3.72
2024-02-15T07:59:46.342Z,3.80
2024-02-15T08:02:34.865Z,3.78
2024-02-15T08:05:22.285Z,3.75
2024-02-15T08:08:09.691Z,3.38
2024-02-15T08:10:56.931Z,3.45
2024-02-15T08:13:55.931Z,3.20
2024-02-15T08:16:43.277Z,3.20
2024-02-15T08:19:31.980Z,3.22
2024-02-15T08:22:26.199Z,3.28
2024-02-15T08:25:16.729Z,3.88
2024-02-15T08:28:06.842Z,3.92
2024-02-15T08:30:56.276Z,7.40
2024-02-15T08:33:47.718Z,4.60
2024-02-15T08:36:35.336Z,4.28
2024-02-15T08:39:23.774Z,2.78
2024-02-15T08:42:12.574Z,2.63
2024-02-15T08:45:01.031Z,2.70
2024-02-15T08:47:51.522Z,2.80
2024-02-15T08:50:39.282Z,2.80
2024-02-15T08:53:29.447Z,2.95
2024-02-15T08:56:17.973Z,2.42
2024-02-15T08:59:05.411Z,2.40
2024-02-15T09:01:53.197Z,2.50
2024-02-15T09:04:45.004Z,2.63
2024-02-15T09:07:34.091Z,1.98
2024-02-15T09:10:24.380Z,2.08
2024-02-15T09:13:11.968Z,2.00
2024-02-15T09:15:59.184Z,2.33
2024-02-15T09:18:47.098Z,1.90
2024-02-15T09:21:38.668Z,2.00
2024-02-15T09:24:26.579Z,2.30
2024-02-15T09:27:14.253Z,2.03
2024-02-15T09:30:01.710Z,1.52
2024-02-15T09:32:49.210Z,1.40
2024-02-15T09:35:37.140Z,1.42
2024-02-15T09:38:26.514Z,1.40
2024-02-15T09:41:14.034Z,1.33
2024-02-15T09:44:03.197Z,1.30
2024-02-15T09:46:58.828Z,1.15
2024-02-15T09:49:49.393Z,1.08
2024-02-15T09:52:37.430Z,1.35
2024-02-15T09:55:28.373Z,1.20
2024-02-15T09:58:19.847Z,1.20
2024-02-15T10:01:11.530Z,1.10
2024-02-15T10:04:00.868Z,0.98
2024-02-15T10:06:49.028Z,1.15
2024-02-15T10:09:44.261Z,1.05
2024-02-15T10:12:42.075Z,0.90
2024-02-15T10:15:40.184Z,1.30
2024-02-15T10:18:28.047Z,1.00
2024-02-15T10:21:31.075Z,1.30
2024-02-15T10:24:21.321Z,1.25
2024-02-15T10:27:08.997Z,0.75
2024-02-15T10:30:17.145Z,1.08
2024-02-15T10:33:07.314Z,0.90
2024-02-15T10:36:10.793Z,0.98
2024-02-15T10:39:19.163Z,0.90
2024-02-15T10:42:08.990Z,1.00
2024-02-15T10:44:56.506Z,1.10
2024-02-15T10:47:47.722Z,1.10
2024-02-15T10:50:35.632Z,0.80
2024-02-15T10:53:26.739Z,1.15
2024-02-15T10:56:24.076Z,1.00
2024-02-15T10:59:15.965Z,0.90
2024-02-15T11:02:25.275Z,0.90
2024-02-15T11:05:16.261Z,0.80
2024-02-15T11:08:09.580Z,0.85
2024-02-15T11:11:00.530Z,0.75
2024-02-15T11:13:50.349Z,0.80
2024-02-15T11:16:45.158Z,1.10
2024-02-15T11:19:42.330Z,1.00
2024-02-15T11:22:31.797Z,1.15
2024-02-15T11:25:36.097Z,0.70
2024-02-15T11:28:24.467Z,0.90
2024-02-15T11:31:37.653Z,0.95
2024-02-15T11:35:16.574Z,0.85
2024-02-15T11:38:07.760Z,0.75
2024-02-15T11:40:55.505Z,0.90
2024-02-15T11:44:02.750Z,1.05
2024-02-15T11:46:56.818Z,0.80
2024-02-15T11:49:45.863Z,0.85
2024-02-15T11:52:33.124Z,0.82
2024-02-15T11:55:22.274Z,0.90
2024-02-15T11:58:11.590Z,0.80
2024-02-15T12:01:21.023Z,1.00
2024-02-15T12:04:27.314Z,0.70
2024-02-15T12:07:34.926Z,0.90
2024-02-15T12:10:41.181Z,0.82
2024-02-15T12:13:47.104Z,1.10
2024-02-15T12:16:53.743Z,1.15
2024-02-15T12:19:41.480Z,0.90
2024-02-15T12:22:35.028Z,1.65
2024-02-15T12:25:23.324Z,0.90
2024-02-15T12:28:10.633Z,1.10
2024-02-15T12:31:01.057Z,0.88
2024-02-15T12:33:53.404Z,0.90
2024-02-15T12:36:40.765Z,0.82
2024-02-15T12:39:30.679Z,1.00
2024-02-15T12:42:19.675Z,0.88
2024-02-15T12:45:09.109Z,0.80
2024-02-15T12:47:57.492Z,0.85
2024-02-15T12:50:45.015Z,1.10
2024-02-15T12:53:32.744Z,1.20
2024-02-15T12:56:25.324Z,0.80
2024-02-15T12:59:13.612Z,1.02
2024-02-15T13:02:00.854Z,1.10
2024-02-15T13:04:48.242Z,0.77
2024-02-15T13:07:38.900Z,1.13
2024-02-15T13:10:26.259Z,1.27
2024-02-15T13:13:21.280Z,0.80
2024-02-15T13:16:08.751Z,0.95
2024-02-15T13:18:59.800Z,0.98
2024-02-15T13:21:54.626Z,1.27
2024-02-15T13:24:42.446Z,1.00
2024-02-15T13:27:29.758Z,0.90
2024-02-15T13:30:22.711Z,0.95
2024-02-15T13:33:14.134Z,1.17
2024-02-15T13:36:01.748Z,0.90
2024-02-15T13:38:51.266Z,1.10
2024-02-15T13:41:41.135Z,1.00
2024-02-15T13:44:29.689Z,1.00
2024-02-15T13:47:18.914Z,1.10
2024-02-15T13:50:06.785Z,0.90
2024-02-15T13:52:54.224Z,1.15
2024-02-15T13:55:45.096Z,1.30
2024-02-15T13:58:32.988Z,1.20
2024-02-15T14:01:20.661Z,2.00
2024-02-15T14:04:28.714Z,1.10
2024-02-15T14:07:23.278Z,1.08
2024-02-15T14:10:11.549Z,1.10
2024-02-15T14:13:07.517Z,1.40
2024-02-15T14:15:55.537Z,1.58
2024-02-15T14:18:46.557Z,1.10
2024-02-15T14:21:40.068Z,1.02
2024-02-15T14:24:28.419Z,1.00
2024-02-15T14:27:16.261Z,1.27
2024-02-15T14:30:25.363Z,1.10
2024-02-15T14:33:22.160Z,1.20
2024-02-15T14:36:11.057Z,1.30
2024-02-15T14:38:59.837Z,1.27
2024-02-15T14:41:50.279Z,1.40
2024-02-15T14:44:42.777Z,1.30
2024-02-15T14:47:30.287Z,1.10
2024-02-15T14:50:17.748Z,1.20
2024-02-15T14:53:05.291Z,0.95
2024-02-15T14:55:54.544Z,1.13
2024-02-15T14:58:45.764Z,1.33
2024-02-15T15:01:33.413Z,0.90
2024-02-15T15:04:21.068Z,1.35
2024-02-15T15:07:27.177Z,1.00
2024-02-15T15:10:35.387Z,2.13
2024-02-15T15:13:25.693Z,1.55
2024-02-15T15:16:33.460Z,1.40
2024-02-15T15:19:21.460Z,1.27
2024-02-15T15:22:09.373Z,1.33
2024-02-15T15:24:56.754Z,1.70
2024-02-15T15:27:44.336Z,1.60
2024-02-15T15:30:35.206Z,1.60
2024-02-15T15:33:24.420Z,1.23
2024-02-15T15:36:12.762Z,1.30
2024-02-15T15:39:09.716Z,1.30
2024-02-15T15:41:57.493Z,1.52
2024-02-15T15:44:46.208Z,2.08
2024-02-15T15:47:35.399Z,1.30
2024-02-15T15:50:25.898Z,1.50
2024-02-15T15:53:13.226Z,1.50
2024-02-15T15:56:02.775Z,1.55
2024-02-15T15:58:53.028Z,1.80
2024-02-15T16:01:52.500Z,1.38
2024-02-15T16:04:47.275Z,1.70
2024-02-15T16:07:36.578Z,1.25
2024-02-15T16:10:29.470Z,1.95
2024-02-15T16:13:17.989Z,1.70
2024-02-15T16:16:06.198Z,1.40
2024-02-15T16:18:53.659Z,1.55
2024-02-15T16:21:42.446Z,1.58
2024-02-15T16:24:38.890Z,2.00
2024-02-15T16:27:28.001Z,2.40
2024-02-15T16:30:16.739Z,2.97
2024-02-15T16:33:05.987Z,2.80
2024-02-15T16:35:57.705Z,2.83
2024-02-15T16:38:45.600Z,1.87
2024-02-15T16:41:34.713Z,2.53
2024-02-15T16:44:22.362Z,2.35
2024-02-15T16:47:12.003Z,2.20
2024-02-15T16:50:01.701Z,3.53
2024-02-15T16:52:51.002Z,2.70
2024-02-15T16:55:38.689Z,4.15
2024-02-15T16:58:27.171Z,3.55
2024-02-15T17:01:14.642Z,3.05
2024-02-15T17:04:06.997Z,3.08
2024-02-15T17:06:55.721Z,3.15
2024-02-15T17:09:43.329Z,3.08
2024-02-15T17:12:40.783Z,2.45
2024-02-15T17:15:28.851Z,2.70
2024-02-15T17:18:24.734Z,3.58
2024-02-15T17:21:16.348Z,3.50
2024-02-15T17:24:06.622Z,2.85
2024-02-15T17:26:55.557Z,2.85
2024-02-15T17:29:44.549Z,3.03
2024-02-15T17:32:33.428Z,4.13
2024-02-15T17:35:22.873Z,3.78
2024-02-15T17:38:12.350Z,3.25
2024-02-15T17:41:06.056Z,3.70
2024-02-15T17:43:58.658Z,4.63
2024-02-15T17:49:34.036Z,3.80
2024-02-15T17:55:24.074Z,2.92
2024-02-15T17:58:14.808Z,3.53
2024-02-15T18:01:02.748Z,3.83
2024-02-15T18:03:54.261Z,3.30
2024-02-15T18:06:42.114Z,3.25
2024-02-15T18:09:30.142Z,3.50
2024-02-15T18:12:21.978Z,3.85
2024-02-15T18:15:14.518Z,3.45
2024-02-15T18:18:02.074Z,3.53
2024-02-15T18:20:50.671Z,3.03
2024-02-15T18:23:40.719Z,2.92
2024-02-15T18:26:29.877Z,3.10
2024-02-15T18:29:19.906Z,3.03
2024-02-15T18:32:08.062Z,3.10
2024-02-15T18:34:55.563Z,2.70
2024-02-15T18:37:46.540Z,3.13
2024-02-15T18:40:38.185Z,3.10
2024-02-15T18:43:29.018Z,2.95
2024-02-15T18:46:18.376Z,4.00
2024-02-15T18:49:11.306Z,3.25
2024-02-15T18:52:05.028Z,3.40
2024-02-15T18:54:53.611Z,4.10
2024-02-15T18:57:41.896Z,4.53
2024-02-15T19:00:37.208Z,3.85
2024-02-15T19:03:30.496Z,3.35
2024-02-15T19:06:20.017Z,3.70
2024-02-15T19:09:09.953Z,4.00
2024-02-15T19:11:59.750Z,4.22
2024-02-15T19:14:47.690Z,4.32
2024-02-15T19:17:36.477Z,3.90
2024-02-15T19:20:24.396Z,3.70
2024-02-15T19:23:12.252Z,4.10
2024-02-15T19:26:00.086Z,3.78
2024-02-15T19:28:48.446Z,4.93
2024-02-15T19:31:37.572Z,4.38
2024-02-15T19:34:28.639Z,4.60
2024-02-15T19:37:16.464Z,4.18
2024-02-15T19:40:08.609Z,3.67
2024-02-15T19:42:57.533Z,3.30
2024-02-15T19:45:45.084Z,4.00
2024-02-15T19:48:35.242Z,3.65
2024-02-15T19:51:25.684Z,3.17
2024-02-15T19:54:17.377Z,3.28
2024-02-15T19:57:07.474Z,3.92
2024-02-15T19:59:55.616Z,2.90
2024-02-15T20:02:45.820Z,3.58
2024-02-15T20:05:35.517Z,2.88
2024-02-15T20:08:23.306Z,3.42
2024-02-15T20:11:12.358Z,3.05
2024-02-15T20:14:01.923Z,3.63
2024-02-15T20:17:02.666Z,3.95
2024-02-15T20:19:51.596Z,4.20
2024-02-15T20:22:42.376Z,6.40
2024-02-15T20:25:32.777Z,5.13
2024-02-15T20:28:22.701Z,5.25
2024-02-15T20:31:10.880Z,4.90
2024-02-15T20:34:07.724Z,6.35
2024-02-15T20:36:59.559Z,5.05
2024-02-15T20:39:47.476Z,4.97
2024-02-15T20:42:36.600Z,5.18
2024-02-15T20:45:26.973Z,5.97
2024-02-15T20:48:15.646Z,6.03
2024-02-15T20:51:05.221Z,5.35
2024-02-15T20:53:55.206Z,5.40
2024-02-15T20:56:47.125Z,6.65
2024-02-15T20:59:34.665Z,6.18
2024-02-15T21:02:26.007Z,5.32
2024-02-15T21:05:14.686Z,5.85
2024-02-15T21:08:03.707Z,5.90
2024-02-15T21:10:51.714Z,5.05
2024-02-15T21:13:43.441Z,5.68
2024-02-15T21:16:33.747Z,5.37
2024-02-15T21:19:25.598Z,5.10
2024-02-15T21:22:14.945Z,4.15
2024-02-15T21:25:04.040Z,4.15
2024-02-15T21:27:53.412Z,4.35
2024-02-15T21:30:43.647Z,4.57
2024-02-15T21:33:32.823Z,4.15
2024-02-15T21:36:20.820Z,3.90
2024-02-15T21:39:08.410Z,3.58
2024-02-15T21:42:01.583Z,3.97
2024-02-15T21:44:53.205Z,3.47
2024-02-15T21:47:44.702Z,3.70
2024-02-15T21:50:33.003Z,3.95
2024-02-15T21:53:20.659Z,4.85
2024-02-15T21:56:08.468Z,5.95
2024-02-15T21:58:55.975Z,5.18
2024-02-15T22:01:43.885Z,5.28
2024-02-15T22:04:33.763Z,5.28
2024-02-15T22:07:26.886Z,5.25
2024-02-15T22:10:16.950Z,5.60
2024-02-15T22:13:05.782Z,5.32
2024-02-15T22:15:55.371Z,5.38
2024-02-15T22:18:46.165Z,5.45
2024-02-15T22:21:34.182Z,5.40
2024-02-15T22:24:23.506Z,5.47
2024-02-15T22:27:11.604Z,5.80
2024-02-15T22:29:59.811Z,6.25
2024-02-15T22:32:48.473Z,5.68
2024-02-15T22:35:36.556Z,6.22
2024-02-15T22:38:27.176Z,6.10
2024-02-15T22:41:14.870Z,5.90
2024-02-15T22:44:02.340Z,5.80
2024-02-15T22:46:51.773Z,6.38
2024-02-15T22:49:39.642Z,5.65
2024-02-15T22:52:27.697Z,5.00
2024-02-15T22:55:15.384Z,4.20
2024-02-15T22:58:03.354Z,4.75
2024-02-15T23:00:52.845Z,3.55
2024-02-15T23:03:42.786Z,4.40
2024-02-15T23:06:31.016Z,3.65
2024-02-15T23:09:19.024Z,4.53
2024-02-15T23:12:06.571Z,3.58
2024-02-15T23:14:54.163Z,3.78
2024-02-15T23:17:43.774Z,3.42
2024-02-15T23:20:31.340Z,4.00
2024-02-15T23:23:18.918Z,4.38
2024-02-15T23:26:10.506Z,4.32
2024-02-15T23:28:58.742Z,4.45
2024-02-15T23:31:46.052Z,3.83
2024-02-15T23:34:33.445Z,4.05
2024-02-15T23:37:39.335Z,3.85
2024-02-15T23:40:26.788Z,4.47
2024-02-15T23:43:15.384Z,3.92
2024-02-15T23:46:02.719Z,3.42
2024-02-15T23:48:50.273Z,3.22
2024-02-15T23:51:37.971Z,3.65
2024-02-15T23:54:25.407Z,4.15
2024-02-15T23:57:13.348Z,3.80
